Honolulu, HI (96801)

8:47 AM HST on August 03, 2015 (GMT -1000)
Pacific Heights | | Change Station
CLOSE
Current Station
Personal Weather Station
Location: Honolulu, HI
Elevation: 528 ft
Nearby Weather Stations
Active Advisory: High Surf Advisory

Elev 528 ft 21.33 °N, 157.84 °W | Updated 2 seconds ago

Scattered Clouds
Scattered Clouds
78.8 °F
Feels Like 81 °F
N
2.9
Wind Variable Wind from WSW
Gusts 12.0 mph

Today
High -- | Low -- °F
--% Chance of Precip.
Yesterday
High -- | Low -- °F
Precip. -- in
6:05 AM 7:09 PM
Waning Gibbous, 85% visible
Pressure 29.90 in
Visibility 10.0 miles
Clouds Few 2600 ft
Scattered Clouds 3700 ft
Scattered Clouds 6000 ft
Heat Index 81 °F
Dew Point 70 °F
Humidity 74%
Rainfall 0.00 in
Snow Depth Not available.
UV 2 out of 12
Pollen Not available.
Air Quality Not available.
Flu Activity Not available.
METAR PHNL 031753Z 05006G14KT 10SM FEW026 SCT037 SCT060 28/20 A2990 RMK AO2 SLP124 T02780200 10278 20256 51007

More Conditions Fewer Conditions

Pressure 29.90 in
Visibility 10.0 miles
Clouds Few 2600 ft
Scattered Clouds 3700 ft
Scattered Clouds 6000 ft
Heat Index 81 °F
Dew Point 70 °F
Humidity 74%
Rainfall 0.00 in
Snow Depth Not available.
UV 2 out of 12
Pollen Not available.
Air Quality Not available.
Flu Activity Not available.
METAR PHNL 031753Z 05006G14KT 10SM FEW026 SCT037 SCT060 28/20 A2990 RMK AO2 SLP124 T02780200 10278 20256 51007

More Conditions Fewer Conditions

10-Day Weather Forecast

×

Almanac

Astronomy

Aug. 03, 2015 Rise Set
Actual Time
Civil Twilight
Nautical Twilight
Astronomical Twilight
Moon
Length of Visible Light
Length of Day
Tomorrow will be .
, % of the Moon is Illuminated

Today's Extremes

State Highs State Lows

Community

WunderPhotos

Upload Photos

1,843,704 photos uploaded!

WunderBlogs® & News

Nearby

Air Quality

  Air Quality AQ Index Pollutant
Not available.

Snow Depth

Station Depth Elevation

Earthquake Activity

City Distance Mag. Time & Date
Minimum magnitude displayed is 2.5.

Coastal Water Temperatures

Place Temperature

Stations

Nearby Weather Stations

Station Location Temp. Windchill Dew Point Humidity Wind Precip. Elev Updated Type
                   
High Surf Advisory
Statement as of 3:37 AM HST on August 03, 2015

... High surf advisory remains in effect until 6 PM HST Tuesday...

A high surf advisory remains in effect until 6 PM HST Tuesday.

* Surf... along east facing shores... 10 to 14 feet through Tuesday.

* Timing... surf will continue to build today... then peaking tonight.

* Impacts... moderate... expect strong breaking waves... shore
break... and strong longshore and rip currents making swimming
difficult and dangerous.

Precautionary/preparedness actions... beachgoers... swimmers... and
surfers should heed all advice given by ocean safety officials
and exercise caution. Boaters should expect recreational surfers
and body boarders utilizing Harbor channels to access surfing
areas.



Reynes